Terminal Aerodrome Forecast
Issued by NWS Wichita, KS

Home | Current Version | Previous Version | Graphics & Text | Print | Product List | Glossary On
Versions: 1 2 3 4 5 6 7 8 9 10 11 12 13 14 15 16 17
000
FTUS43 KICT 131700
TAFICT
TAF
KICT 131733Z 1318/1418 20023G32KT P6SM VCTS SCT045CB BKN100
     FM132000 34022G30KT P6SM SCT015 OVC030
     FM132200 34025G35KT 6SM BR SCT009 OVC015
     FM140900 35022G32KT 4SM -SN SCT009 OVC015=

USA.gov is the U.S. government's official web portal to all federal, state and local government web resources and services.